createdAt,value
2022-11-23T00:03:08.344Z,988.916
2022-11-23T00:23:08.066Z,988.954
2022-11-23T00:43:07.884Z,988.899
2022-11-23T01:03:08.642Z,988.824
2022-11-23T01:23:07.533Z,988.942
2022-11-23T01:43:07.305Z,989.046
2022-11-23T02:03:07.944Z,989.099
2022-11-23T02:23:07.757Z,989.198
2022-11-23T02:43:07.511Z,989.252
2022-11-23T03:03:08.153Z,989.36
2022-11-23T03:23:07.863Z,989.46
2022-11-23T03:43:07.642Z,989.49
2022-11-23T04:03:08.369Z,989.485
2022-11-23T04:23:14.258Z,989.538
2022-11-23T04:43:08.065Z,989.542
2022-11-23T05:03:08.729Z,989.653
2022-11-23T05:23:07.481Z,989.692
2022-11-23T05:43:07.911Z,989.775
2022-11-23T06:03:08.627Z,989.87
2022-11-23T06:23:07.664Z,989.861
2022-11-23T06:43:07.386Z,990.017
2022-11-23T07:03:08.369Z,990.118
2022-11-23T07:23:07.152Z,990.229
2022-11-23T07:43:08.047Z,990.413
2022-11-23T08:03:31.379Z,990.537
2022-11-23T08:23:07.145Z,990.691
2022-11-23T08:43:08.163Z,990.738
2022-11-23T09:03:09.010Z,990.831
2022-11-23T09:23:15.047Z,990.836
2022-11-23T09:43:08.050Z,990.976
2022-11-23T10:03:08.051Z,991.038
2022-11-23T10:23:07.839Z,990.889
2022-11-23T10:43:07.584Z,990.781
2022-11-23T11:03:08.560Z,990.628
2022-11-23T11:23:07.247Z,990.622
2022-11-23T11:43:07.307Z,990.744
2022-11-23T12:03:08.409Z,990.672
2022-11-23T12:23:07.256Z,990.388
2022-11-23T12:43:08.127Z,990.105
2022-11-23T13:03:08.958Z,990.009
2022-11-23T13:23:07.699Z,990.108
2022-11-23T13:43:07.932Z,990.226
2022-11-23T14:03:08.908Z,990.291
2022-11-23T14:23:07.972Z,990.043
2022-11-23T14:43:08.100Z,989.881
2022-11-23T15:03:51.655Z,989.793
2022-11-23T15:23:07.557Z,989.887
2022-11-23T15:43:07.483Z,990.215
2022-11-23T16:03:08.590Z,990.322
2022-11-23T16:23:07.383Z,990.48
2022-11-23T16:43:07.260Z,990.701
2022-11-23T17:03:09.102Z,990.731
2022-11-23T17:23:08.105Z,990.983
2022-11-23T17:43:08.038Z,991.3
2022-11-23T18:03:09.133Z,991.752
2022-11-23T18:23:08.114Z,991.903
2022-11-23T18:43:08.000Z,992.056
2022-11-23T19:03:08.876Z,992.13
2022-11-23T19:23:07.657Z,992.31
2022-11-23T19:43:07.662Z,992.778
2022-11-23T20:03:08.592Z,992.794
2022-11-23T20:23:07.374Z,992.96
2022-11-23T20:43:07.763Z,993.239
2022-11-23T21:03:08.961Z,993.491
2022-11-23T21:23:07.753Z,993.711
2022-11-23T21:43:07.913Z,993.826
2022-11-23T22:03:09.281Z,994.062
2022-11-23T22:23:07.113Z,994.185
2022-11-23T22:43:08.178Z,994.269
2022-11-23T23:03:08.729Z,994.422
2022-11-23T23:23:07.517Z,994.635
2022-11-23T23:43:07.174Z,994.836
